| Date | Time | Temp. (oF) | Dew Point (oF) | Rel. Hum. (%) | Press. (in.) | Wind Dir. | Wind Speed (mph) | Hourly Rainfall (in.) |
|
|---|---|---|---|---|---|---|---|---|---|
| 1 | 01/22 | 00:00 | 27 | 26 | 98 | 30.13 | S | 2 | 0.00 |
| 2 | 01/21 | 23:00 | 27 | 26 | 98 | 30.14 | SSW | 2 | 0.00 |
| 3 | 01/21 | 22:00 | 27 | 26 | 98 | 30.14 | ESE | 0 | 0.00 |
| 4 | 01/21 | 21:00 | 27 | 26 | 98 | 30.13 | SW | 0 | 0.00 |
| 5 | 01/21 | 20:00 | 26 | 25 | 98 | 30.13 | NE | 0 | 0.00 |
| 6 | 01/21 | 19:00 | 26 | 25 | 98 | 30.11 | ENE | 0 | 0.00 |
| 7 | 01/21 | 18:00 | 26 | 25 | 97 | 30.10 | ENE | 2 | 0.00 |
| 8 | 01/21 | 17:00 | 26 | 25 | 97 | 30.08 | ESE | 1 | 0.01 |
| 9 | 01/21 | 16:00 | 27 | 26 | 97 | 30.08 | ENE | 4 | 0.03 |
| 10 | 01/21 | 15:00 | 27 | 26 | 97 | 30.09 | E | 4 | 0.03 |
| 11 | 01/21 | 14:00 | 27 | 26 | 96 | 30.10 | ENE | 4 | 0.00 |
| 12 | 01/21 | 13:00 | 28 | 23 | 82 | 30.12 | SSW | 0 | 0.00 |
| 13 | 01/21 | 12:00 | 30 | 21 | 71 | 30.12 | NE | 0 | 0.00 |
| 14 | 01/21 | 11:00 | 29 | 23 | 78 | 30.13 | NE | 0 | 0.00 |
| 15 | 01/21 | 10:00 | 28 | 24 | 87 | 30.11 | ENE | 4 | 0.00 |
| 16 | 01/21 | 09:00 | 25 | 24 | 98 | 30.12 | NE | 4 | 0.00 |
| 17 | 01/21 | 08:00 | 24 | 23 | 98 | 30.12 | S | 4 | 0.00 |
| 18 | 01/21 | 07:00 | 23 | 22 | 98 | 30.10 | ENE | 0 | 0.00 |
| 19 | 01/21 | 06:00 | 23 | 22 | 98 | 30.09 | NNE | 0 | 0.00 |
| 20 | 01/21 | 05:00 | 23 | 22 | 98 | 30.09 | S | 0 | 0.00 |
| 21 | 01/21 | 04:00 | 24 | 23 | 97 | 30.08 | NNE | 0 | 0.00 |
| 22 | 01/21 | 03:00 | 24 | 23 | 98 | 30.08 | S | 0 | 0.00 |
| 23 | 01/21 | 02:00 | 24 | 23 | 98 | 30.06 | SSE | 0 | 0.00 |
| 24 | 01/21 | 01:00 | 25 | 24 | 97 | 30.05 | ENE | 0 | 0.00 |